Time;durP1;ratioP1;P1;durP2;ratioP2;P2;SDS_P1;SDS_P2;PMS_P1;PMS_P2;Temp;Humidity;BMP_temperature;BMP_pressure;BME280_temperature;BME280_humidity;BME280_pressure;Samples;Min_cycle;Max_cycle;Signal;HPM_P1;HPM_P2
2021/09/27 00:00:21;;;;;;;5.50;4.38;;;;;23.00;101338.00;;;;5061686;28;20195;-79
2021/09/27 00:02:48;;;;;;;6.07;5.47;;;;;23.00;101331.00;;;;5058832;28;20203;-79
2021/09/27 00:05:18;;;;;;;6.45;5.63;;;;;22.90;101334.00;;;;5056255;28;20195;-79
2021/09/27 00:07:45;;;;;;;9.23;5.75;;;;;22.90;101332.00;;;;5062645;28;20231;-79
2021/09/27 00:10:16;;;;;;;6.72;5.28;;;;;22.90;101329.00;;;;5068925;28;20203;-79
2021/09/27 00:12:43;;;;;;;6.65;4.93;;;;;22.90;101330.00;;;;5062765;28;20194;-79
2021/09/27 00:15:16;;;;;;;6.55;5.85;;;;;22.90;101334.00;;;;5069105;28;20203;-79
2021/09/27 00:17:44;;;;;;;8.52;5.97;;;;;22.90;101329.00;;;;5051862;28;20194;-79
2021/09/27 00:20:12;;;;;;;7.05;5.43;;;;;22.90;101336.00;;;;5056124;28;20199;-79
2021/09/27 00:22:39;;;;;;;6.03;5.43;;;;;22.90;101328.00;;;;5067205;28;20206;-79
2021/09/27 00:25:08;;;;;;;6.95;5.95;;;;;22.90;101337.00;;;;5059667;28;20199;-80
2021/09/27 00:27:35;;;;;;;6.63;5.82;;;;;22.80;101342.00;;;;5069693;28;20223;-80
2021/09/27 00:30:03;;;;;;;6.05;5.43;;;;;22.80;101326.00;;;;5069547;28;20195;-80
2021/09/27 00:32:32;;;;;;;6.45;5.43;;;;;22.80;101325.00;;;;5051296;28;20218;-80
2021/09/27 00:34:59;;;;;;;8.52;6.43;;;;;22.80;101318.00;;;;5056108;28;20584;-80
2021/09/27 00:37:27;;;;;;;6.40;5.72;;;;;22.80;101314.00;;;;5067584;28;20195;-79
2021/09/27 00:39:54;;;;;;;5.70;5.18;;;;;22.80;101316.00;;;;5052362;28;20228;-79
2021/09/27 00:42:21;;;;;;;5.22;4.72;;;;;22.80;101314.00;;;;5055276;28;20233;-80
2021/09/27 00:44:48;;;;;;;7.00;5.22;;;;;22.80;101314.00;;;;5065094;28;20672;-79
2021/09/27 00:47:16;;;;;;;6.38;5.35;;;;;22.80;101303.00;;;;5062005;28;20223;-80
2021/09/27 00:49:45;;;;;;;6.18;5.43;;;;;22.80;101303.00;;;;5069257;28;20560;-80
2021/09/27 00:52:12;;;;;;;7.35;5.57;;;;;22.80;101299.00;;;;5055952;28;20211;-80
2021/09/27 00:54:40;;;;;;;6.43;5.30;;;;;22.80;101300.00;;;;5050034;28;20199;-80
2021/09/27 00:57:12;;;;;;;6.47;5.65;;;;;22.70;101295.00;;;;5061757;28;20210;-80
2021/09/27 00:59:42;;;;;;;7.60;6.00;;;;;22.70;101296.00;;;;5065988;28;20259;-80
2021/09/27 01:02:10;;;;;;;5.65;4.97;;;;;22.70;101295.00;;;;5051191;28;20195;-79
2021/09/27 01:04:39;;;;;;;5.55;5.00;;;;;22.70;101288.00;;;;5050318;28;21116;-79
2021/09/27 01:07:22;;;;;;;6.25;5.43;;;;;22.60;101290.00;;;;5054312;28;20218;-79
2021/09/27 01:10:09;;;;;;;6.72;5.28;;;;;22.60;101283.00;;;;5050892;28;20211;-79
2021/09/27 01:12:56;;;;;;;8.25;4.82;;;;;22.60;101284.00;;;;5050656;28;20215;-79
2021/09/27 01:15:31;;;;;;;5.07;4.25;;;;;22.60;101286.00;;;;5050775;28;20196;-80
2021/09/27 01:18:08;;;;;;;6.53;5.13;;;;;22.60;101296.00;;;;5049197;28;20203;-80
2021/09/27 01:21:12;;;;;;;5.90;5.10;;;;;22.50;101280.00;;;;5049366;28;20198;-80
2021/09/27 01:24:11;;;;;;;7.50;5.38;;;;;22.50;101280.00;;;;5048651;28;20264;-79
2021/09/27 01:26:59;;;;;;;5.78;4.75;;;;;22.50;101280.00;;;;5057122;28;20199;-80
2021/09/27 01:29:44;;;;;;;6.50;5.20;;;;;22.40;101275.00;;;;5065642;28;20195;-80
2021/09/27 01:32:27;;;;;;;6.50;5.35;;;;;22.40;101278.00;;;;5054410;28;20195;-80
2021/09/27 01:35:07;;;;;;;7.53;5.82;;;;;22.40;101282.00;;;;5061321;28;20195;-80
2021/09/27 01:37:44;;;;;;;6.85;5.97;;;;;22.40;101281.00;;;;5048999;28;20673;-80
2021/09/27 01:40:19;;;;;;;5.63;4.75;;;;;22.40;101276.00;;;;5050931;28;20207;-80
2021/09/27 01:42:52;;;;;;;6.05;5.05;;;;;22.40;101288.00;;;;5055319;28;20595;-81
2021/09/27 01:45:27;;;;;;;6.32;5.35;;;;;22.40;101285.00;;;;5050216;28;20199;-80
2021/09/27 01:48:05;;;;;;;6.88;5.60;;;;;22.30;101289.00;;;;5062638;28;20226;-80
2021/09/27 01:50:37;;;;;;;5.80;5.20;;;;;22.40;101301.00;;;;5069734;28;20191;-81
2021/09/27 01:53:10;;;;;;;5.03;4.53;;;;;22.30;101289.00;;;;5053275;28;20203;-80
2021/09/27 01:55:45;;;;;;;7.03;5.90;;;;;22.30;101287.00;;;;5051305;28;20602;-80
2021/09/27 01:58:20;;;;;;;6.43;5.22;;;;;22.30;101274.00;;;;5063983;28;20206;-79
2021/09/27 02:00:53;;;;;;;6.28;5.55;;;;;22.30;101274.00;;;;5058090;28;20205;-80
2021/09/27 02:03:28;;;;;;;9.43;5.95;;;;;22.30;101279.00;;;;5049846;28;20200;-80
2021/09/27 02:06:05;;;;;;;6.00;5.40;;;;;22.20;101270.00;;;;5049306;28;20202;-80
2021/09/27 02:08:40;;;;;;;8.02;5.03;;;;;22.20;101278.00;;;;5060113;28;20227;-80
2021/09/27 02:11:15;;;;;;;10.32;4.93;;;;;22.20;101264.00;;;;5056984;28;20198;-80
2021/09/27 02:13:51;;;;;;;5.65;5.05;;;;;22.20;101267.00;;;;5052083;28;20213;-79
2021/09/27 02:16:25;;;;;;;6.13;5.03;;;;;22.20;101260.00;;;;5048783;28;20574;-80
2021/09/27 02:19:00;;;;;;;6.13;5.18;;;;;22.20;101269.00;;;;5055192;28;20211;-80
2021/09/27 02:21:32;;;;;;;6.80;5.40;;;;;22.20;101268.00;;;;5049009;28;20199;-79
2021/09/27 02:24:17;;;;;;;7.55;5.10;;;;;22.10;101273.00;;;;5049093;28;20658;-80
2021/09/27 02:26:46;;;;;;;6.57;5.57;;;;;22.20;101279.00;;;;5054174;28;20199;-80
2021/09/27 02:29:14;;;;;;;7.57;5.18;;;;;22.20;101284.00;;;;5047935;28;20223;-81
2021/09/27 02:31:47;;;;;;;6.45;5.85;;;;;22.10;101273.00;;;;5047026;28;20195;-80
2021/09/27 02:34:24;;;;;;;6.88;5.38;;;;;22.10;101275.00;;;;5048940;28;20196;-80
2021/09/27 02:36:56;;;;;;;6.57;5.50;;;;;22.10;101276.00;;;;5047470;28;20202;-80
2021/09/27 02:39:27;;;;;;;6.30;5.43;;;;;22.10;101266.00;;;;5047798;28;20210;-80
2021/09/27 02:42:00;;;;;;;6.18;4.95;;;;;22.00;101273.00;;;;5049000;28;20231;-80
2021/09/27 02:44:28;;;;;;;5.90;5.05;;;;;22.10;101272.00;;;;5064234;28;20660;-80
2021/09/27 02:46:57;;;;;;;6.88;5.28;;;;;22.00;101270.00;;;;5065341;28;20795;-80
2021/09/27 02:49:29;;;;;;;6.28;4.90;;;;;22.00;101259.00;;;;5054814;28;20219;-80
2021/09/27 02:52:00;;;;;;;5.57;4.57;;;;;22.00;101259.00;;;;5047889;28;20191;-80
2021/09/27 02:54:34;;;;;;;6.85;6.03;;;;;22.00;101256.00;;;;5053734;28;20199;-80
2021/09/27 02:57:37;;;;;;;7.47;5.10;;;;;21.90;101257.00;;;;5049565;28;20212;-80
2021/09/27 03:00:10;;;;;;;6.68;4.90;;;;;22.00;101253.00;;;;5045336;28;20207;-80
2021/09/27 03:02:46;;;;;;;7.35;5.65;;;;;21.90;101253.00;;;;5047977;28;20188;-80
2021/09/27 03:05:25;;;;;;;5.05;4.53;;;;;21.90;101247.00;;;;5048771;28;20199;-80
2021/09/27 03:08:08;;;;;;;5.60;4.95;;;;;21.90;101248.00;;;;5047420;28;20562;-80
2021/09/27 03:10:41;;;;;;;7.03;5.07;;;;;21.90;101248.00;;;;5047608;28;20211;-80
2021/09/27 03:13:16;;;;;;;5.78;4.95;;;;;21.90;101245.00;;;;5051618;28;20665;-80
2021/09/27 03:16:08;;;;;;;6.25;4.75;;;;;21.80;101253.00;;;;5060260;28;20245;-79
2021/09/27 03:18:50;;;;;;;5.53;4.72;;;;;21.80;101247.00;;;;5046659;28;20223;-80
2021/09/27 03:21:33;;;;;;;5.88;4.80;;;;;21.80;101256.00;;;;5048149;28;20198;-80
2021/09/27 03:24:16;;;;;;;5.05;4.55;;;;;21.80;101253.00;;;;5047466;28;20669;-80
2021/09/27 03:26:54;;;;;;;6.05;5.32;;;;;21.80;101248.00;;;;5060564;28;20196;-80
2021/09/27 03:29:33;;;;;;;6.05;5.20;;;;;21.80;101253.00;;;;5061479;28;20215;-80
2021/09/27 03:32:12;;;;;;;5.10;4.60;;;;;21.80;101254.00;;;;5050420;28;20640;-80
2021/09/27 03:34:50;;;;;;;7.18;5.13;;;;;21.80;101248.00;;;;5066664;28;20210;-80
2021/09/27 03:37:36;;;;;;;6.35;5.28;;;;;21.80;101247.00;;;;5063850;28;20229;-80
2021/09/27 03:40:23;;;;;;;7.07;5.15;;;;;21.80;101237.00;;;;5061886;28;20596;-80
2021/09/27 03:43:00;;;;;;;5.93;4.82;;;;;21.80;101240.00;;;;5047416;28;20227;-80
2021/09/27 03:45:31;;;;;;;6.88;4.68;;;;;21.90;101243.00;;;;5055497;28;20665;-80
2021/09/27 03:48:04;;;;;;;5.97;5.18;;;;;21.90;101236.00;;;;5047065;28;20798;-80
2021/09/27 03:50:36;;;;;;;6.25;4.82;;;;;21.90;101237.00;;;;5065192;28;21367;-80
2021/09/27 03:53:10;;;;;;;5.93;5.32;;;;;21.90;101243.00;;;;5051575;28;20199;-80
2021/09/27 03:55:43;;;;;;;7.78;5.68;;;;;21.90;101232.00;;;;5049285;28;20199;-80
2021/09/27 03:58:16;;;;;;;7.03;5.35;;;;;21.90;101237.00;;;;5058967;28;20198;-80
2021/09/27 04:00:49;;;;;;;6.82;5.15;;;;;21.90;101236.00;;;;5059201;28;20198;-80
2021/09/27 04:03:42;;;;;;;6.38;5.53;;;;;21.90;101235.00;;;;5050794;28;20207;-80
2021/09/27 04:06:28;;;;;;;7.82;5.30;;;;;21.90;101236.00;;;;5049776;28;20208;-80
2021/09/27 04:09:05;;;;;;;7.95;5.47;;;;;21.90;101237.00;;;;5046718;28;20238;-80
2021/09/27 04:11:39;;;;;;;6.70;4.65;;;;;21.90;101235.00;;;;5046640;28;20238;-80
2021/09/27 04:14:14;;;;;;;5.70;5.00;;;;;22.00;101231.00;;;;5046854;28;20210;-80
2021/09/27 04:16:50;;;;;;;6.40;4.88;;;;;22.00;101233.00;;;;5046797;28;20191;-80
2021/09/27 04:19:24;;;;;;;5.00;4.38;;;;;22.00;101229.00;;;;5055351;28;20203;-80
2021/09/27 04:21:58;;;;;;;6.88;5.25;;;;;22.00;101228.00;;;;5050634;28;20199;-80
2021/09/27 04:24:59;;;;;;;7.22;5.25;;;;;21.90;101229.00;;;;5049700;28;20198;-80
2021/09/27 04:27:40;;;;;;;6.43;4.72;;;;;22.00;101227.00;;;;5050109;28;20210;-80
2021/09/27 04:30:21;;;;;;;7.15;5.07;;;;;22.00;101221.00;;;;5057695;28;20198;-80
2021/09/27 04:33:02;;;;;;;7.00;5.25;;;;;22.00;101221.00;;;;5054456;28;20196;-80
2021/09/27 04:35:41;;;;;;;7.93;5.43;;;;;22.00;101217.00;;;;5050601;28;20202;-80
2021/09/27 04:38:10;;;;;;;7.28;5.28;;;;;22.10;101218.00;;;;5050378;28;20211;-80
2021/09/27 04:40:55;;;;;;;6.80;5.35;;;;;22.00;101223.00;;;;5057766;28;20222;-80
2021/09/27 04:43:34;;;;;;;6.75;5.60;;;;;22.00;101220.00;;;;5064804;28;20198;-80
2021/09/27 04:46:11;;;;;;;6.05;5.35;;;;;22.00;101223.00;;;;5070920;28;20191;-80
2021/09/27 04:49:04;;;;;;;7.30;5.28;;;;;22.00;101217.00;;;;5049699;28;20222;-80
2021/09/27 04:51:51;;;;;;;6.40;5.32;;;;;22.00;101216.00;;;;5049159;28;20200;-80
2021/09/27 04:54:57;;;;;;;7.70;5.30;;;;;21.90;101207.00;;;;5049653;28;20553;-80
2021/09/27 04:57:29;;;;;;;6.00;4.18;;;;;22.00;101202.00;;;;5046597;28;20202;-80
2021/09/27 05:00:09;;;;;;;5.72;5.05;;;;;22.00;101200.00;;;;5055956;28;20203;-80
2021/09/27 05:02:56;;;;;;;6.57;5.07;;;;;21.90;101200.00;;;;5049700;28;20293;-80
2021/09/27 05:05:39;;;;;;;5.72;5.00;;;;;22.00;101201.00;;;;5042056;28;20203;-79
2021/09/27 05:08:32;;;;;;;7.03;5.05;;;;;21.90;101206.00;;;;5050048;28;20285;-79
2021/09/27 05:11:20;;;;;;;6.38;4.78;;;;;21.90;101201.00;;;;5061105;28;20240;-79
2021/09/27 05:14:12;;;;;;;9.80;5.35;;;;;21.90;101206.00;;;;5051599;28;20207;-80
2021/09/27 05:16:48;;;;;;;7.57;5.68;;;;;22.00;101199.00;;;;5049929;28;20195;-79
2021/09/27 05:19:25;;;;;;;6.00;4.97;;;;;22.00;101201.00;;;;5066479;28;20209;-79
2021/09/27 05:22:05;;;;;;;6.78;5.25;;;;;22.00;101199.00;;;;5064479;28;20206;-79
2021/09/27 05:24:52;;;;;;;7.72;5.88;;;;;22.00;101195.00;;;;5049891;28;20192;-79
2021/09/27 05:27:51;;;;;;;5.45;4.78;;;;;21.90;101201.00;;;;5062028;28;20207;-79
2021/09/27 05:30:36;;;;;;;8.90;5.03;;;;;22.00;101193.00;;;;5053364;28;20199;-80
2021/09/27 05:33:10;;;;;;;6.15;5.13;;;;;22.00;101194.00;;;;5058212;28;20205;-80
2021/09/27 05:35:50;;;;;;;9.07;5.72;;;;;22.00;101184.00;;;;5053457;28;20198;-80
2021/09/27 05:38:29;;;;;;;6.13;4.97;;;;;22.00;101185.00;;;;5060928;28;20254;-79
2021/09/27 05:41:07;;;;;;;7.53;5.38;;;;;22.00;101193.00;;;;5054954;28;20227;-79
2021/09/27 05:43:46;;;;;;;5.90;5.38;;;;;22.00;101188.00;;;;5060938;28;20598;-79
2021/09/27 05:46:38;;;;;;;7.25;5.22;;;;;21.90;101179.00;;;;5065287;28;20190;-80
2021/09/27 05:49:10;;;;;;;9.38;5.43;;;;;22.00;101176.00;;;;5049597;28;20226;-79
2021/09/27 05:51:44;;;;;;;6.80;5.72;;;;;22.00;101174.00;;;;5065027;28;20206;-80
2021/09/27 05:54:19;;;;;;;7.03;6.07;;;;;22.00;101176.00;;;;5058315;28;20311;-80
2021/09/27 05:56:53;;;;;;;8.18;6.65;;;;;22.00;101179.00;;;;5055061;28;20210;-80
2021/09/27 05:59:25;;;;;;;6.95;5.70;;;;;22.10;101179.00;;;;5048915;28;20210;-79
2021/09/27 06:02:03;;;;;;;6.40;5.55;;;;;22.00;101173.00;;;;5047868;28;20204;-79
2021/09/27 06:04:43;;;;;;;9.38;6.28;;;;;22.00;101174.00;;;;5049405;28;20195;-79
2021/09/27 06:07:17;;;;;;;6.70;5.07;;;;;22.00;101165.00;;;;5050627;28;20199;-79
2021/09/27 06:09:58;;;;;;;6.90;5.68;;;;;22.00;101173.00;;;;5060804;28;20226;-79
2021/09/27 06:12:33;;;;;;;6.47;5.18;;;;;22.10;101171.00;;;;5048914;28;20195;-79
2021/09/27 06:15:04;;;;;;;7.68;5.93;;;;;22.10;101172.00;;;;5052122;28;20199;-80
2021/09/27 06:17:53;;;;;;;8.70;5.13;;;;;22.00;101174.00;;;;5056827;28;20191;-81
2021/09/27 06:20:31;;;;;;;6.90;5.38;;;;;22.10;101172.00;;;;5047293;28;20219;-82
2021/09/27 06:23:07;;;;;;;8.93;5.40;;;;;22.20;101171.00;;;;5048210;28;20206;-81
2021/09/27 06:25:40;;;;;;;9.52;5.78;;;;;22.20;101168.00;;;;5063412;28;20191;-81
2021/09/27 06:28:17;;;;;;;6.03;5.28;;;;;22.20;101173.00;;;;5048918;28;20214;-81
2021/09/27 06:30:50;;;;;;;5.57;4.95;;;;;22.20;101173.00;;;;5060761;28;20190;-81
2021/09/27 06:33:26;;;;;;;5.30;4.72;;;;;22.20;101164.00;;;;5067850;28;20211;-81
2021/09/27 06:35:54;;;;;;;8.90;5.03;;;;;22.30;101169.00;;;;5057407;28;20207;-81
2021/09/27 06:38:28;;;;;;;6.05;5.15;;;;;22.30;101168.00;;;;5061254;28;21050;-82
2021/09/27 06:40:55;;;;;;;8.15;5.32;;;;;22.40;101165.00;;;;5058454;28;20247;-81
2021/09/27 06:43:25;;;;;;;6.57;4.97;;;;;22.40;101170.00;;;;5052007;28;20203;-79
2021/09/27 06:45:54;;;;;;;9.23;5.93;;;;;22.50;101161.00;;;;5061249;28;20277;-80
2021/09/27 06:48:24;;;;;;;6.20;5.05;;;;;22.60;101161.00;;;;5049225;28;20665;-79
2021/09/27 06:50:52;;;;;;;7.28;5.15;;;;;22.60;101162.00;;;;5051979;28;20199;-79
2021/09/27 06:53:20;;;;;;;6.93;4.95;;;;;22.60;101165.00;;;;5052426;28;20204;-79
2021/09/27 06:55:47;;;;;;;6.70;5.38;;;;;22.70;101164.00;;;;5048836;28;20195;-79
2021/09/27 06:58:14;;;;;;;8.07;5.25;;;;;22.70;101160.00;;;;5048301;28;20188;-79
2021/09/27 07:00:42;;;;;;;9.48;6.82;;;;;22.70;101158.00;;;;5048361;28;20196;-79
2021/09/27 07:03:09;;;;;;;9.38;6.90;;;;;22.80;101149.00;;;;5059046;28;20258;-78
2021/09/27 07:05:38;;;;;;;7.95;6.05;;;;;22.80;101163.00;;;;5048104;28;20191;-78
2021/09/27 07:08:05;;;;;;;7.05;6.20;;;;;22.80;101160.00;;;;5051684;28;20199;-80
2021/09/27 07:10:33;;;;;;;7.20;5.95;;;;;22.80;101156.00;;;;5048758;28;20916;-81
2021/09/27 07:13:00;;;;;;;10.10;6.28;;;;;22.90;101154.00;;;;5052647;28;20191;-80
2021/09/27 07:15:28;;;;;;;7.22;5.70;;;;;22.90;101149.00;;;;5053690;28;20195;-82
2021/09/27 07:17:55;;;;;;;8.75;5.85;;;;;22.90;101146.00;;;;5054069;28;20642;-81
2021/09/27 07:20:25;;;;;;;6.32;5.15;;;;;22.90;101143.00;;;;5052398;28;20203;-80
2021/09/27 07:22:54;;;;;;;6.35;5.30;;;;;23.00;101146.00;;;;5054853;28;20199;-78
2021/09/27 07:25:23;;;;;;;7.15;6.18;;;;;23.00;101140.00;;;;5054632;28;20218;-78
2021/09/27 07:27:50;;;;;;;8.60;5.57;;;;;23.00;101139.00;;;;5049368;28;20871;-79
2021/09/27 07:30:19;;;;;;;8.68;5.90;;;;;23.10;101136.00;;;;5067045;28;20219;-79
2021/09/27 07:32:47;;;;;;;7.15;5.57;;;;;23.10;101128.00;;;;5065480;28;20301;-79
2021/09/27 07:35:18;;;;;;;5.80;5.03;;;;;23.10;101128.00;;;;5050996;28;20203;-78
2021/09/27 07:37:45;;;;;;;6.07;5.25;;;;;23.10;101130.00;;;;5047971;28;20200;-79
2021/09/27 07:40:17;;;;;;;6.75;5.80;;;;;23.10;101124.00;;;;5048505;28;20211;-79
2021/09/27 07:42:45;;;;;;;7.63;5.80;;;;;23.20;101125.00;;;;5054270;28;20226;-78
2021/09/27 07:45:15;;;;;;;7.88;5.97;;;;;23.20;101126.00;;;;5054702;28;20203;-79
2021/09/27 07:47:43;;;;;;;7.40;5.00;;;;;23.30;101123.00;;;;5051808;28;20198;-79
2021/09/27 07:50:11;;;;;;;6.18;5.18;;;;;23.30;101125.00;;;;5059848;28;20230;-79
2021/09/27 07:52:39;;;;;;;10.07;6.88;;;;;23.30;101116.00;;;;5058217;28;20202;-79
2021/09/27 07:55:07;;;;;;;8.02;5.85;;;;;23.30;101111.00;;;;5060458;28;20207;-79
2021/09/27 07:57:36;;;;;;;7.70;5.15;;;;;23.30;101112.00;;;;5051227;28;20192;-80
2021/09/27 08:00:07;;;;;;;6.00;5.40;;;;;23.40;101110.00;;;;5055871;28;20210;-82
2021/09/27 08:02:34;;;;;;;6.75;5.53;;;;;23.40;101118.00;;;;5060764;28;20203;-81
2021/09/27 08:05:01;;;;;;;7.65;5.20;;;;;23.40;101108.00;;;;5051076;28;20192;-82
2021/09/27 08:07:29;;;;;;;8.85;5.43;;;;;23.50;101104.00;;;;5056301;28;20199;-82
2021/09/27 08:09:56;;;;;;;5.90;5.05;;;;;23.50;101106.00;;;;5060605;28;20226;-81
2021/09/27 08:12:23;;;;;;;6.75;5.13;;;;;23.60;101108.00;;;;5061172;28;20201;-81
2021/09/27 08:14:54;;;;;;;6.38;5.78;;;;;23.60;101115.00;;;;5051843;28;20192;-81
2021/09/27 08:17:22;;;;;;;8.75;5.45;;;;;23.60;101108.00;;;;5054311;28;20191;-82
2021/09/27 08:19:49;;;;;;;6.00;4.88;;;;;23.70;101108.00;;;;5052987;28;20196;-81
2021/09/27 08:22:17;;;;;;;5.50;4.88;;;;;23.70;101115.00;;;;5068517;28;20187;-81
2021/09/27 08:24:44;;;;;;;6.97;5.93;;;;;23.80;101107.00;;;;5054295;28;20187;-81
2021/09/27 08:27:12;;;;;;;6.28;5.35;;;;;23.80;101106.00;;;;5052118;28;20200;-81
2021/09/27 08:29:39;;;;;;;6.65;5.95;;;;;23.80;101105.00;;;;5056255;28;20210;-81
2021/09/27 08:32:08;;;;;;;5.57;4.97;;;;;23.90;101105.00;;;;5050978;28;20191;-81
2021/09/27 08:34:35;;;;;;;12.05;5.40;;;;;24.00;101112.00;;;;5049317;28;20196;-81
2021/09/27 08:37:03;;;;;;;5.97;5.38;;;;;24.00;101103.00;;;;5049973;28;20207;-80
2021/09/27 08:39:30;;;;;;;6.20;5.05;;;;;24.00;101103.00;;;;5049809;28;20195;-79
2021/09/27 08:42:02;;;;;;;7.78;5.85;;;;;24.00;101109.00;;;;5058458;28;20227;-79
2021/09/27 08:44:48;;;;;;;6.38;5.00;;;;;24.00;101111.00;;;;5059281;28;20668;-78
2021/09/27 08:47:23;;;;;;;7.05;5.70;;;;;24.10;101108.00;;;;5067552;28;20191;-79
2021/09/27 08:49:54;;;;;;;5.38;4.88;;;;;24.10;101104.00;;;;5061682;28;20237;-79
2021/09/27 08:52:24;;;;;;;7.97;4.55;;;;;24.20;101081.00;;;;5055259;28;20297;-79
2021/09/27 08:54:52;;;;;;;4.90;4.20;;;;;24.20;101086.00;;;;5067441;28;20199;-80
2021/09/27 08:57:37;;;;;;;6.88;5.00;;;;;24.20;101092.00;;;;5053871;28;20191;-79
2021/09/27 09:00:22;;;;;;;6.60;4.70;;;;;24.20;101089.00;;;;5057865;28;20206;-79
2021/09/27 09:03:00;;;;;;;5.15;4.28;;;;;24.20;101089.00;;;;5052540;28;20199;-79
2021/09/27 09:05:33;;;;;;;5.68;3.97;;;;;24.30;101092.00;;;;5056576;28;20194;-78
2021/09/27 09:08:06;;;;;;;4.97;4.43;;;;;24.30;101085.00;;;;5060212;28;20203;-78
2021/09/27 09:10:43;;;;;;;5.13;4.35;;;;;24.30;101078.00;;;;5051888;28;20227;-78
2021/09/27 09:13:14;;;;;;;5.60;4.05;;;;;24.40;101079.00;;;;5050727;28;20187;-78
2021/09/27 09:15:44;;;;;;;5.95;4.75;;;;;24.40;101081.00;;;;5050168;28;20191;-79
2021/09/27 09:18:17;;;;;;;5.90;4.60;;;;;24.40;101087.00;;;;5057066;28;20206;-78
2021/09/27 09:20:49;;;;;;;5.63;4.60;;;;;24.40;101094.00;;;;5055574;28;20196;-79
2021/09/27 09:23:24;;;;;;;5.60;4.45;;;;;24.40;101092.00;;;;5060725;28;20585;-79
2021/09/27 09:25:52;;;;;;;5.35;4.40;;;;;24.50;101087.00;;;;5060454;28;20199;-79
2021/09/27 09:28:20;;;;;;;7.05;4.53;;;;;24.60;101086.00;;;;5062133;28;20680;-79
2021/09/27 09:30:53;;;;;;;6.82;4.75;;;;;24.70;101073.00;;;;5051968;28;20223;-79
2021/09/27 09:33:45;;;;;;;5.32;4.30;;;;;24.60;101083.00;;;;5057952;28;20195;-79
2021/09/27 09:36:17;;;;;;;5.18;4.30;;;;;24.80;101074.00;;;;5052107;28;20206;-79
2021/09/27 09:38:46;;;;;;;5.30;4.65;;;;;24.80;101074.00;;;;5050183;28;20191;-80
2021/09/27 09:41:14;;;;;;;7.15;3.88;;;;;24.90;101072.00;;;;5052027;28;20238;-80
2021/09/27 09:43:43;;;;;;;4.40;4.00;;;;;24.90;101069.00;;;;5057931;28;20198;-80
2021/09/27 09:46:14;;;;;;;4.40;4.00;;;;;24.90;101074.00;;;;5067680;28;20202;-80
2021/09/27 09:49:02;;;;;;;4.50;3.67;;;;;24.90;101064.00;;;;5061411;28;20192;-80
2021/09/27 09:51:37;;;;;;;3.60;3.30;;;;;25.00;101054.00;;;;5057481;28;20220;-79
2021/09/27 09:54:18;;;;;;;5.97;4.15;;;;;24.90;101060.00;;;;5051706;28;20546;-80
2021/09/27 09:56:49;;;;;;;5.75;3.72;;;;;25.00;101055.00;;;;5058603;28;20199;-81
2021/09/27 09:59:25;;;;;;;5.65;4.30;;;;;25.00;101048.00;;;;5051976;28;20199;-79
2021/09/27 10:01:55;;;;;;;4.32;3.90;;;;;25.00;101060.00;;;;5062494;28;20281;-80
2021/09/27 10:04:27;;;;;;;4.20;3.33;;;;;25.00;101057.00;;;;5048591;28;20658;-80
2021/09/27 10:07:05;;;;;;;4.20;3.55;;;;;24.90;101066.00;;;;5047419;28;20211;-79
2021/09/27 10:09:35;;;;;;;4.78;4.07;;;;;25.00;101059.00;;;;5049697;28;20199;-79
2021/09/27 10:12:05;;;;;;;4.40;3.67;;;;;25.00;101061.00;;;;5051116;28;20206;-79
2021/09/27 10:14:39;;;;;;;3.67;3.33;;;;;24.90;101057.00;;;;5048484;28;20199;-79
2021/09/27 10:17:19;;;;;;;3.60;3.30;;;;;24.90;101055.00;;;;5050738;28;20207;-78
2021/09/27 10:19:56;;;;;;;4.05;3.58;;;;;24.90;101047.00;;;;5052958;28;20206;-78
2021/09/27 10:22:29;;;;;;;4.80;3.85;;;;;25.00;101044.00;;;;5052294;28;20572;-79
2021/09/27 10:24:59;;;;;;;3.78;2.83;;;;;24.90;101043.00;;;;5052194;28;20199;-79
2021/09/27 10:27:31;;;;;;;4.97;3.47;;;;;25.00;101049.00;;;;5051596;28;20187;-78
2021/09/27 10:30:01;;;;;;;7.05;3.30;;;;;25.00;101044.00;;;;5057953;28;20333;-79
2021/09/27 10:32:37;;;;;;;7.13;3.30;;;;;25.00;101035.00;;;;5056272;28;20218;-78
2021/09/27 10:35:28;;;;;;;4.22;2.97;;;;;25.00;101037.00;;;;5050513;28;20286;-78
2021/09/27 10:38:02;;;;;;;3.15;2.85;;;;;25.00;101033.00;;;;5051892;28;20203;-78
2021/09/27 10:40:30;;;;;;;3.03;2.72;;;;;25.10;101039.00;;;;5048364;28;20226;-78
2021/09/27 10:42:58;;;;;;;3.25;2.95;;;;;25.10;101039.00;;;;5049197;28;20202;-78
2021/09/27 10:45:26;;;;;;;3.97;3.08;;;;;25.10;101038.00;;;;5048547;28;20200;-79
2021/09/27 10:47:56;;;;;;;2.60;2.38;;;;;25.10;101035.00;;;;5050218;28;20295;-78
2021/09/27 10:50:29;;;;;;;5.28;2.78;;;;;25.10;101037.00;;;;5056173;28;20224;-78
2021/09/27 10:53:04;;;;;;;3.63;2.90;;;;;25.10;101034.00;;;;5051895;28;20578;-78
2021/09/27 10:55:48;;;;;;;3.40;2.50;;;;;25.10;101039.00;;;;5057851;28;20202;-77
2021/09/27 10:58:38;;;;;;;3.42;2.42;;;;;25.10;101043.00;;;;5057582;28;20195;-78
2021/09/27 11:01:08;;;;;;;2.75;2.47;;;;;25.10;101027.00;;;;5047561;28;20196;-78
2021/09/27 11:03:41;;;;;;;4.57;2.80;;;;;25.10;101030.00;;;;5051853;28;20673;-78
2021/09/27 11:06:35;;;;;;;3.10;2.22;;;;;25.10;101027.00;;;;5049097;28;20210;-79
2021/09/27 11:09:07;;;;;;;3.47;2.63;;;;;25.20;101027.00;;;;5043931;28;20592;-80
2021/09/27 11:11:47;;;;;;;2.55;2.35;;;;;25.10;101014.00;;;;5056334;28;20309;-80
2021/09/27 11:14:28;;;;;;;2.67;2.42;;;;;25.10;101013.00;;;;5047463;28;20192;-80
2021/09/27 11:17:12;;;;;;;2.80;2.60;;;;;25.20;101013.00;;;;5046813;28;20211;-80
2021/09/27 11:19:42;;;;;;;5.28;2.72;;;;;25.30;101010.00;;;;5052863;28;20196;-81
2021/09/27 11:22:40;;;;;;;4.55;2.53;;;;;25.20;101006.00;;;;5048504;28;20195;-79
2021/09/27 11:25:14;;;;;;;4.40;2.17;;;;;25.30;101003.00;;;;5048567;28;20203;-80
2021/09/27 11:27:42;;;;;;;3.42;2.58;;;;;25.40;101005.00;;;;5050837;28;20664;-79
2021/09/27 11:30:38;;;;;;;4.63;2.80;;;;;25.20;101001.00;;;;5051781;28;20226;-80
2021/09/27 11:33:17;;;;;;;4.68;2.50;;;;;25.30;101000.00;;;;5047498;28;20206;-80
2021/09/27 11:35:46;;;;;;;3.60;2.20;;;;;25.30;101000.00;;;;5053184;28;20661;-79
2021/09/27 11:38:34;;;;;;;4.10;1.98;;;;;25.30;101003.00;;;;5051800;28;20195;-80
2021/09/27 11:41:25;;;;;;;2.35;2.15;;;;;25.40;101007.00;;;;5010760;28;1051546;-79
2021/09/27 11:44:04;;;;;;;4.15;1.88;;;;;25.40;101001.00;;;;5047493;28;20210;-78
2021/09/27 11:46:46;;;;;;;2.40;2.00;;;;;25.40;100998.00;;;;5047948;28;20222;-78
2021/09/27 11:49:30;;;;;;;3.95;1.85;;;;;25.40;100996.00;;;;5049809;28;20207;-79
2021/09/27 11:52:12;;;;;;;3.30;2.20;;;;;25.40;101000.00;;;;5050672;28;21088;-78
2021/09/27 11:54:51;;;;;;;2.30;2.10;;;;;25.50;100995.00;;;;5050341;28;20685;-79
2021/09/27 11:57:27;;;;;;;3.45;1.95;;;;;25.50;100994.00;;;;5048312;28;20198;-78
2021/09/27 12:00:10;;;;;;;2.20;1.90;;;;;25.50;100989.00;;;;5056657;28;20202;-80
2021/09/27 12:02:57;;;;;;;1.92;1.80;;;;;25.60;100989.00;;;;5050109;28;20191;-77
2021/09/27 12:05:42;;;;;;;2.97;2.03;;;;;25.70;100999.00;;;;5053543;28;20562;-78
2021/09/27 12:08:17;;;;;;;4.60;2.63;;;;;25.80;100990.00;;;;5050711;28;20191;-78
2021/09/27 12:10:49;;;;;;;3.33;1.70;;;;;25.80;100989.00;;;;5058635;28;20219;-77
2021/09/27 12:13:20;;;;;;;2.05;1.45;;;;;25.90;100990.00;;;;5062257;28;20671;-77
2021/09/27 12:15:54;;;;;;;5.13;2.00;;;;;26.00;100975.00;;;;5054881;28;20200;-78
2021/09/27 12:18:44;;;;;;;2.80;1.75;;;;;26.00;100983.00;;;;5047410;28;20814;-78
2021/09/27 12:21:17;;;;;;;1.95;1.65;;;;;26.20;100990.00;;;;5047502;28;20207;-78
2021/09/27 12:23:47;;;;;;;2.67;1.50;;;;;26.20;100985.00;;;;5058892;28;20199;-78
2021/09/27 12:26:23;;;;;;;1.73;1.38;;;;;26.20;100992.00;;;;5067207;28;20206;-78
2021/09/27 12:28:59;;;;;;;1.30;1.20;;;;;26.30;100992.00;;;;5066636;28;21206;-78
2021/09/27 12:31:27;;;;;;;4.00;1.70;;;;;26.30;100995.00;;;;5064282;28;20226;-78
2021/09/27 12:33:54;;;;;;;1.83;1.50;;;;;26.30;100989.00;;;;5060759;28;20206;-79
2021/09/27 12:36:24;;;;;;;1.95;1.70;;;;;26.30;100994.00;;;;5066461;28;20218;-78
2021/09/27 12:38:53;;;;;;;3.45;1.30;;;;;26.30;101000.00;;;;5069059;28;20210;-78
2021/09/27 12:41:25;;;;;;;3.15;1.33;;;;;26.30;101001.00;;;;5064173;28;20242;-79
2021/09/27 12:43:53;;;;;;;1.45;1.25;;;;;26.30;100995.00;;;;5068165;28;20194;-77
2021/09/27 12:46:24;;;;;;;2.05;1.20;;;;;26.30;101002.00;;;;5065133;28;20199;-78